createdAt,value
2017-09-23T00:00:40.207Z,9.50
2017-09-23T00:03:06.639Z,9.50
2017-09-23T00:05:33.078Z,9.50
2017-09-23T00:07:59.602Z,9.40
2017-09-23T00:10:26.057Z,9.20
2017-09-23T00:12:52.511Z,9.20
2017-09-23T00:15:19.843Z,9.20
2017-09-23T00:17:46.271Z,9.20
2017-09-23T00:20:12.724Z,9.30
2017-09-23T00:22:39.154Z,9.30
2017-09-23T00:25:05.650Z,9.40
2017-09-23T00:27:32.095Z,9.40
2017-09-23T00:29:58.506Z,9.30
2017-09-23T00:32:24.979Z,9.30
2017-09-23T00:34:51.568Z,9.30
2017-09-23T00:37:18.083Z,9.30
2017-09-23T00:39:44.489Z,9.30
2017-09-23T00:42:10.923Z,9.30
2017-09-23T00:44:37.486Z,9.30
2017-09-23T00:47:03.931Z,9.30
2017-09-23T00:49:30.420Z,9.30
2017-09-23T00:51:56.858Z,9.30
2017-09-23T00:54:23.355Z,9.30
2017-09-23T00:56:49.902Z,9.40
2017-09-23T00:59:16.319Z,9.20
2017-09-23T01:01:42.772Z,9.30
2017-09-23T01:04:09.191Z,9.40
2017-09-23T01:06:35.623Z,9.50
2017-09-23T01:09:02.070Z,9.40
2017-09-23T01:11:28.492Z,9.60
2017-09-23T01:13:54.966Z,9.60
2017-09-23T01:16:22.150Z,9.60
2017-09-23T01:18:48.578Z,9.60
2017-09-23T01:21:15.012Z,9.60
2017-09-23T01:23:41.438Z,9.60
2017-09-23T01:26:07.886Z,9.70
2017-09-23T01:28:34.307Z,9.70
2017-09-23T01:31:00.750Z,9.70
2017-09-23T01:33:27.275Z,9.70
2017-09-23T01:35:53.708Z,9.70
2017-09-23T01:38:20.323Z,9.70
2017-09-23T01:40:47.479Z,9.80
2017-09-23T01:43:13.950Z,9.80
2017-09-23T01:45:40.394Z,9.80
2017-09-23T01:48:06.830Z,9.80
2017-09-23T01:50:33.278Z,9.80
2017-09-23T01:53:01.334Z,9.80
2017-09-23T01:55:27.801Z,9.80
2017-09-23T01:57:54.983Z,9.60
2017-09-23T02:00:21.432Z,9.60
2017-09-23T02:02:47.851Z,9.50
2017-09-23T02:05:14.291Z,9.40
2017-09-23T02:07:40.744Z,9.50
2017-09-23T02:10:07.271Z,9.60
2017-09-23T02:12:33.780Z,9.70
2017-09-23T02:15:00.235Z,9.60
2017-09-23T02:17:26.658Z,9.60
2017-09-23T02:19:53.180Z,9.60
2017-09-23T02:22:19.608Z,9.60
2017-09-23T02:24:46.041Z,9.60
2017-09-23T02:27:12.482Z,9.60
2017-09-23T02:29:38.963Z,9.60
2017-09-23T02:32:05.410Z,9.50
2017-09-23T02:34:32.611Z,9.70
2017-09-23T02:36:59.073Z,9.50
2017-09-23T02:39:25.502Z,9.70
2017-09-23T02:41:51.967Z,9.80
2017-09-23T02:44:19.139Z,9.70
2017-09-23T02:46:45.643Z,9.70
2017-09-23T02:49:12.875Z,9.80
2017-09-23T02:51:39.368Z,9.80
2017-09-23T02:54:05.823Z,9.80
2017-09-23T02:56:32.330Z,9.70
2017-09-23T02:58:58.771Z,9.80
2017-09-23T03:01:25.222Z,9.80
2017-09-23T03:03:51.668Z,9.80
2017-09-23T03:06:18.083Z,9.70
2017-09-23T03:08:44.491Z,9.70
2017-09-23T03:11:10.958Z,9.70
2017-09-23T03:13:37.415Z,9.70
2017-09-23T03:16:04.577Z,9.70
2017-09-23T03:18:31.802Z,9.80
2017-09-23T03:20:58.244Z,9.70
2017-09-23T03:23:24.671Z,9.80
2017-09-23T03:25:51.150Z,9.70
2017-09-23T03:28:17.590Z,9.60
2017-09-23T03:30:44.023Z,9.50
2017-09-23T03:33:10.527Z,9.30
2017-09-23T03:35:37.678Z,9.40
2017-09-23T03:38:04.879Z,9.30
2017-09-23T03:40:31.474Z,9.30
2017-09-23T03:42:58.618Z,9.20
2017-09-23T03:45:25.815Z,9.20
2017-09-23T03:47:52.323Z,9.10
2017-09-23T03:50:18.742Z,9.20
2017-09-23T03:52:45.905Z,9.30
2017-09-23T03:55:12.359Z,9.20
2017-09-23T03:57:38.777Z,9.30
2017-09-23T04:00:05.240Z,9.20
2017-09-23T04:02:31.658Z,9.20
2017-09-23T04:04:58.238Z,9.10
2017-09-23T04:07:24.666Z,9.00
2017-09-23T04:09:51.098Z,9.00
2017-09-23T04:12:17.527Z,9.00
2017-09-23T04:14:43.994Z,9.00
2017-09-23T04:17:10.446Z,9.10
2017-09-23T04:19:36.866Z,9.20
2017-09-23T04:22:03.483Z,9.20
2017-09-23T04:24:30.635Z,9.20
2017-09-23T04:26:57.874Z,9.20
2017-09-23T04:29:25.099Z,9.20
2017-09-23T04:31:51.524Z,9.20
2017-09-23T04:34:18.011Z,9.10
2017-09-23T04:36:45.182Z,9.00
2017-09-23T04:39:11.655Z,8.90
2017-09-23T04:41:38.110Z,8.90
2017-09-23T04:44:05.363Z,8.90
2017-09-23T04:46:32.570Z,8.90
2017-09-23T04:48:58.975Z,8.90
2017-09-23T04:51:25.476Z,8.90
2017-09-23T04:53:52.695Z,8.90
2017-09-23T04:56:19.108Z,8.80
2017-09-23T04:58:45.550Z,8.90
2017-09-23T05:01:11.975Z,8.90
2017-09-23T05:03:38.414Z,8.90
2017-09-23T05:06:04.826Z,8.80
2017-09-23T05:08:31.366Z,8.80
2017-09-23T05:10:57.830Z,8.70
2017-09-23T05:13:24.287Z,8.60
2017-09-23T05:15:50.739Z,8.60
2017-09-23T05:18:17.934Z,8.70
2017-09-23T05:20:44.365Z,8.70
2017-09-23T05:23:10.778Z,8.70
2017-09-23T05:25:37.232Z,8.70
2017-09-23T05:28:03.810Z,8.80
2017-09-23T05:30:31.041Z,8.80
2017-09-23T05:32:57.535Z,8.70
2017-09-23T05:35:23.983Z,9.00
2017-09-23T05:37:50.443Z,9.10
2017-09-23T05:40:16.930Z,9.40
2017-09-23T05:42:43.360Z,9.50
2017-09-23T05:45:10.013Z,9.60
2017-09-23T05:47:36.491Z,9.50
2017-09-23T05:50:03.032Z,9.70
2017-09-23T05:52:30.280Z,10.00
2017-09-23T05:54:56.930Z,10.00
2017-09-23T05:57:24.137Z,10.30
2017-09-23T05:59:50.637Z,10.30
2017-09-23T06:02:17.115Z,10.50
2017-09-23T06:04:43.615Z,11.10
2017-09-23T06:07:10.047Z,11.80
2017-09-23T06:09:36.535Z,12.40
2017-09-23T06:12:03.727Z,12.70
2017-09-23T06:14:30.190Z,12.60
2017-09-23T06:16:56.643Z,12.60
2017-09-23T06:19:23.087Z,12.80
2017-09-23T06:21:50.278Z,12.40
2017-09-23T06:24:16.730Z,12.40
2017-09-23T06:26:43.268Z,12.20
2017-09-23T06:29:09.947Z,12.20
2017-09-23T06:31:37.070Z,12.40
2017-09-23T06:34:03.567Z,12.40
2017-09-23T06:36:30.007Z,12.70
2017-09-23T06:38:56.490Z,12.80
2017-09-23T06:41:23.690Z,13.30
2017-09-23T06:43:50.122Z,13.30
2017-09-23T06:46:16.591Z,13.70
2017-09-23T06:48:43.055Z,15.30
2017-09-23T06:51:10.251Z,18.50
2017-09-23T06:53:36.702Z,18.40
2017-09-23T06:56:03.143Z,18.90
2017-09-23T06:58:29.578Z,19.50
2017-09-23T07:00:56.048Z,21.00
2017-09-23T07:03:23.214Z,22.40
2017-09-23T07:05:49.676Z,22.30
2017-09-23T07:08:16.110Z,22.30
2017-09-23T07:10:42.534Z,22.10
2017-09-23T07:13:09.004Z,21.20
2017-09-23T07:15:35.466Z,19.90
2017-09-23T07:18:01.956Z,20.70
2017-09-23T07:20:28.419Z,21.70
2017-09-23T07:22:55.624Z,24.30
2017-09-23T07:25:22.042Z,24.20
2017-09-23T07:27:48.509Z,24.90
2017-09-23T07:30:14.950Z,25.50
2017-09-23T07:32:41.567Z,25.50
2017-09-23T07:35:08.051Z,25.70
2017-09-23T07:37:34.512Z,25.40
2017-09-23T07:40:00.991Z,24.40
2017-09-23T07:42:28.212Z,24.30
2017-09-23T07:44:54.653Z,24.50
2017-09-23T07:47:21.150Z,24.80
2017-09-23T07:49:47.678Z,25.00
2017-09-23T07:52:14.122Z,24.40
2017-09-23T07:54:40.536Z,24.40
2017-09-23T07:57:07.004Z,24.00
2017-09-23T07:59:33.586Z,24.50
2017-09-23T08:02:00.835Z,25.60
2017-09-23T08:04:28.035Z,25.20
2017-09-23T08:06:54.499Z,25.20
2017-09-23T08:09:20.966Z,24.80
2017-09-23T08:11:48.155Z,24.00
2017-09-23T08:14:14.622Z,24.00
2017-09-23T08:16:41.152Z,23.90
2017-09-23T08:19:07.595Z,23.80
2017-09-23T08:21:34.094Z,23.80
2017-09-23T08:24:00.504Z,23.90
2017-09-23T08:26:26.953Z,23.90
2017-09-23T08:28:53.627Z,23.70
2017-09-23T08:31:20.125Z,23.50
2017-09-23T08:33:46.643Z,23.10
2017-09-23T08:36:13.091Z,23.40
2017-09-23T08:38:39.518Z,23.60
2017-09-23T08:41:06.039Z,23.90
2017-09-23T08:43:32.472Z,23.70
2017-09-23T08:45:58.962Z,23.40
2017-09-23T08:48:25.380Z,23.70
2017-09-23T08:50:51.851Z,23.80
2017-09-23T08:53:19.130Z,24.10
2017-09-23T08:55:45.574Z,24.10
2017-09-23T08:58:11.994Z,23.90
2017-09-23T09:00:38.420Z,24.50
2017-09-23T09:03:04.884Z,24.50
2017-09-23T09:05:31.336Z,24.60
2017-09-23T09:07:57.909Z,24.40
2017-09-23T09:10:25.076Z,24.10
2017-09-23T09:12:51.554Z,24.00
2017-09-23T09:15:17.998Z,24.20
2017-09-23T09:17:44.446Z,24.00
2017-09-23T09:20:11.650Z,23.90
2017-09-23T09:22:38.074Z,23.90
2017-09-23T09:25:04.531Z,23.80
2017-09-23T09:27:30.939Z,23.90
2017-09-23T09:29:57.463Z,24.10
2017-09-23T09:32:23.905Z,23.60
2017-09-23T09:34:50.336Z,23.40
2017-09-23T09:37:16.795Z,23.40
2017-09-23T09:39:43.235Z,23.00
2017-09-23T09:42:09.709Z,23.70
2017-09-23T09:44:36.891Z,23.90
2017-09-23T09:47:03.403Z,23.90
2017-09-23T09:49:29.831Z,23.60
2017-09-23T09:51:56.276Z,24.20
2017-09-23T09:54:22.756Z,24.00
2017-09-23T09:56:49.202Z,24.30
2017-09-23T09:59:15.703Z,24.50
2017-09-23T10:01:42.151Z,24.30
2017-09-23T10:04:08.617Z,24.50
2017-09-23T10:06:37.622Z,23.70
2017-09-23T10:09:04.048Z,23.70
2017-09-23T10:11:31.243Z,24.70
2017-09-23T10:13:57.679Z,24.60
2017-09-23T10:16:24.087Z,24.40
2017-09-23T10:18:50.545Z,23.90
2017-09-23T10:21:17.004Z,24.00
2017-09-23T10:23:43.479Z,24.30
2017-09-23T10:26:09.914Z,24.50
2017-09-23T10:28:36.402Z,24.50
2017-09-23T10:31:02.882Z,24.70
2017-09-23T10:33:29.446Z,24.90
2017-09-23T10:35:55.927Z,25.10
2017-09-23T10:38:23.093Z,24.50
2017-09-23T10:40:49.634Z,24.50
2017-09-23T10:43:16.090Z,24.10
2017-09-23T10:45:42.574Z,23.40
2017-09-23T10:48:09.788Z,24.00
2017-09-23T10:50:36.254Z,24.00
2017-09-23T10:53:03.482Z,25.00
2017-09-23T10:55:29.965Z,24.90
2017-09-23T10:57:56.438Z,25.50
2017-09-23T11:00:22.897Z,25.60
2017-09-23T11:02:49.395Z,25.10
2017-09-23T11:05:15.931Z,25.30
2017-09-23T11:07:42.364Z,25.10
2017-09-23T11:10:08.823Z,24.80
2017-09-23T11:12:35.300Z,25.00
2017-09-23T11:15:01.772Z,24.40
2017-09-23T11:17:28.215Z,23.90
2017-09-23T11:19:54.680Z,24.00
2017-09-23T11:22:21.868Z,21.80
2017-09-23T11:24:48.338Z,21.70
2017-09-23T11:27:14.752Z,21.20
2017-09-23T11:29:41.211Z,21.20
2017-09-23T11:32:08.383Z,21.00
2017-09-23T11:34:34.826Z,21.00
2017-09-23T11:37:01.293Z,21.10
2017-09-23T11:39:27.810Z,21.10
2017-09-23T11:41:54.299Z,21.20
2017-09-23T11:44:20.766Z,21.10
2017-09-23T11:46:47.267Z,21.30
2017-09-23T11:49:13.724Z,22.10
2017-09-23T11:51:40.158Z,22.70
2017-09-23T11:54:06.651Z,23.20
2017-09-23T11:56:33.092Z,22.80
2017-09-23T11:59:00.294Z,22.00
2017-09-23T12:01:26.732Z,22.00
2017-09-23T12:03:53.153Z,22.50
2017-09-23T12:06:19.619Z,23.70
2017-09-23T12:08:46.064Z,24.30
2017-09-23T12:11:12.538Z,25.00
2017-09-23T12:13:38.987Z,26.10
2017-09-23T12:16:05.432Z,26.30
2017-09-23T12:18:32.054Z,26.80
2017-09-23T12:20:58.557Z,27.40
2017-09-23T12:23:25.715Z,26.00
2017-09-23T12:25:52.908Z,24.90
2017-09-23T12:28:19.428Z,24.90
2017-09-23T12:30:45.912Z,24.40
2017-09-23T12:33:12.386Z,24.00
2017-09-23T12:35:38.832Z,23.00
2017-09-23T12:38:05.267Z,22.60
2017-09-23T12:40:31.950Z,22.60
2017-09-23T12:42:58.442Z,22.20
2017-09-23T12:45:24.883Z,21.90
2017-09-23T12:47:51.391Z,22.10
2017-09-23T12:50:17.903Z,22.30
2017-09-23T12:52:45.094Z,22.80
2017-09-23T12:55:11.543Z,22.70
2017-09-23T12:57:37.966Z,23.00
2017-09-23T13:00:04.452Z,23.10
2017-09-23T13:02:31.650Z,25.60
2017-09-23T13:04:58.202Z,25.50
2017-09-23T13:07:24.660Z,27.00
2017-09-23T13:09:51.059Z,27.40
2017-09-23T13:12:17.551Z,28.00
2017-09-23T13:14:44.705Z,29.40
2017-09-23T13:17:11.168Z,29.30
2017-09-23T13:19:37.747Z,29.40
2017-09-23T13:22:04.213Z,29.90
2017-09-23T13:24:30.655Z,29.60
2017-09-23T13:26:57.111Z,29.80
2017-09-23T13:29:23.631Z,29.50
2017-09-23T13:31:50.079Z,30.20
2017-09-23T13:34:16.556Z,31.60
2017-09-23T13:36:43.797Z,32.00
2017-09-23T13:39:10.981Z,31.70
2017-09-23T13:41:37.538Z,31.80
2017-09-23T13:44:04.039Z,31.20
2017-09-23T13:46:31.291Z,25.60
2017-09-23T13:48:57.847Z,25.50
2017-09-23T13:51:24.334Z,23.90
2017-09-23T13:53:50.795Z,23.00
2017-09-23T13:56:17.319Z,23.00
2017-09-23T13:58:44.490Z,22.80
2017-09-23T14:01:10.930Z,22.80
2017-09-23T14:03:37.403Z,23.50
2017-09-23T14:06:03.838Z,24.90
2017-09-23T14:08:30.298Z,25.40
2017-09-23T14:10:57.482Z,28.10
2017-09-23T14:13:24.082Z,28.00
2017-09-23T14:15:51.266Z,32.30
2017-09-23T14:18:17.809Z,32.30
2017-09-23T14:20:44.300Z,33.30
2017-09-23T14:23:11.455Z,32.60
2017-09-23T14:25:38.631Z,32.30
2017-09-23T14:28:05.058Z,32.30
2017-09-23T14:30:31.520Z,30.50
2017-09-23T14:32:58.005Z,28.00
2017-09-23T14:35:25.166Z,24.90
2017-09-23T14:37:51.648Z,24.80
2017-09-23T14:40:18.156Z,24.10
2017-09-23T14:42:44.566Z,24.80
2017-09-23T14:45:11.030Z,26.60
2017-09-23T14:47:37.510Z,28.20
2017-09-23T14:50:04.910Z,30.80
2017-09-23T14:52:31.534Z,30.80
2017-09-23T14:54:59.054Z,30.60
2017-09-23T14:57:26.452Z,31.80
2017-09-23T14:59:52.994Z,31.80
2017-09-23T15:02:19.635Z,31.20
2017-09-23T15:04:46.093Z,31.40
2017-09-23T15:07:12.524Z,32.00
2017-09-23T15:09:38.974Z,30.90
2017-09-23T15:12:05.471Z,30.50
2017-09-23T15:14:31.941Z,30.40
2017-09-23T15:16:58.410Z,28.60
2017-09-23T15:19:24.869Z,27.70
2017-09-23T15:21:51.309Z,26.60
2017-09-23T15:24:17.870Z,25.60
2017-09-23T15:26:44.339Z,25.20
2017-09-23T15:29:11.577Z,25.10
2017-09-23T15:31:38.783Z,24.50
2017-09-23T15:34:05.215Z,24.40
2017-09-23T15:36:31.736Z,23.80
2017-09-23T15:38:58.199Z,23.50
2017-09-23T15:41:24.668Z,23.50
2017-09-23T15:43:51.863Z,23.60
2017-09-23T15:46:18.384Z,23.60
2017-09-23T15:48:44.807Z,24.00
2017-09-23T15:51:11.211Z,23.60
2017-09-23T15:53:38.416Z,23.50
2017-09-23T15:56:04.868Z,23.50
2017-09-23T15:58:31.363Z,24.00
2017-09-23T16:00:57.803Z,23.50
2017-09-23T16:03:24.286Z,22.80
2017-09-23T16:05:50.734Z,22.10
2017-09-23T16:08:17.924Z,21.20
2017-09-23T16:10:44.398Z,21.20
2017-09-23T16:13:15.130Z,21.00
2017-09-23T16:15:41.595Z,20.70
2017-09-23T16:18:08.802Z,20.40
2017-09-23T16:20:35.233Z,20.30
2017-09-23T16:23:01.696Z,20.20
2017-09-23T16:25:28.888Z,19.60
2017-09-23T16:27:55.327Z,19.60
2017-09-23T16:30:21.856Z,19.50
2017-09-23T16:32:48.335Z,19.70
2017-09-23T16:35:14.781Z,19.60
2017-09-23T16:37:41.987Z,19.20
2017-09-23T16:40:08.528Z,19.20
2017-09-23T16:42:35.658Z,19.20
2017-09-23T16:45:02.166Z,18.90
2017-09-23T16:47:47.270Z,18.60
2017-09-23T16:50:13.779Z,18.50
2017-09-23T16:52:40.310Z,18.50
2017-09-23T16:55:06.767Z,18.30
2017-09-23T16:57:33.188Z,18.00
2017-09-23T16:59:59.664Z,17.90
2017-09-23T17:02:26.145Z,17.70
2017-09-23T17:04:52.660Z,17.60
2017-09-23T17:07:19.941Z,17.20
2017-09-23T17:09:46.473Z,17.20
2017-09-23T17:12:12.946Z,17.00
2017-09-23T17:14:39.599Z,16.80
2017-09-23T17:17:06.066Z,16.50
2017-09-23T17:19:32.512Z,16.30
2017-09-23T17:21:58.976Z,16.20
2017-09-23T17:24:25.409Z,16.10
2017-09-23T17:26:52.075Z,16.10
2017-09-23T17:29:19.583Z,15.90
2017-09-23T17:31:46.109Z,15.70
2017-09-23T17:34:12.563Z,15.30
2017-09-23T17:36:39.098Z,14.70
2017-09-23T17:39:05.677Z,14.60
2017-09-23T17:41:32.404Z,14.70
2017-09-23T17:43:58.955Z,14.90
2017-09-23T17:47:51.478Z,14.90
2017-09-23T17:50:17.938Z,14.80
2017-09-23T17:52:45.243Z,14.60
2017-09-23T17:55:11.693Z,14.60
2017-09-23T17:57:38.381Z,14.20
2017-09-23T18:00:04.831Z,13.80
2017-09-23T18:02:31.340Z,13.40
2017-09-23T18:04:58.579Z,13.40
2017-09-23T18:07:25.825Z,13.40
2017-09-23T18:09:52.276Z,13.40
2017-09-23T18:12:19.494Z,13.70
2017-09-23T18:14:46.132Z,13.70
2017-09-23T18:17:12.579Z,13.70
2017-09-23T18:19:39.031Z,13.40
2017-09-23T18:22:05.491Z,13.20
2017-09-23T18:24:32.003Z,13.10
2017-09-23T18:26:58.463Z,13.00
2017-09-23T18:29:24.976Z,13.20
2017-09-23T18:31:51.462Z,13.20
2017-09-23T18:34:17.915Z,13.20
2017-09-23T18:36:45.121Z,13.00
2017-09-23T18:39:11.651Z,13.00
2017-09-23T18:41:38.115Z,13.00
2017-09-23T18:44:04.576Z,12.90
2017-09-23T18:46:32.018Z,13.00
2017-09-23T18:48:58.598Z,12.90
2017-09-23T18:51:25.142Z,12.90
2017-09-23T18:53:51.828Z,12.90
2017-09-23T18:56:19.769Z,12.70
2017-09-23T18:58:46.247Z,12.70
2017-09-23T19:01:13.571Z,12.50
2017-09-23T19:03:40.085Z,12.50
2017-09-23T19:06:06.601Z,12.50
2017-09-23T19:08:33.059Z,12.50
2017-09-23T19:10:59.567Z,12.60
2017-09-23T19:13:26.029Z,12.60
2017-09-23T19:15:52.541Z,12.60
2017-09-23T19:18:19.077Z,12.40
2017-09-23T19:20:45.536Z,12.40
2017-09-23T19:23:12.028Z,12.20
2017-09-23T19:25:38.551Z,12.00
2017-09-23T19:28:05.059Z,12.00
2017-09-23T19:30:31.515Z,11.90
2017-09-23T19:32:58.767Z,11.90
2017-09-23T19:35:25.238Z,11.90
2017-09-23T19:37:51.896Z,11.90
2017-09-23T19:40:18.512Z,11.80
2017-09-23T19:42:45.043Z,11.80
2017-09-23T19:45:11.496Z,11.80
2017-09-23T19:47:38.027Z,11.90
2017-09-23T19:50:04.533Z,11.90
2017-09-23T19:52:30.999Z,11.90
2017-09-23T19:54:57.434Z,11.90
2017-09-23T19:57:23.944Z,11.90
2017-09-23T19:59:50.462Z,11.70
2017-09-23T20:02:17.905Z,11.70
2017-09-23T20:04:45.119Z,11.70
2017-09-23T20:07:11.587Z,11.70
2017-09-23T20:09:38.798Z,11.70
2017-09-23T20:12:05.227Z,11.60
2017-09-23T20:14:31.707Z,11.70
2017-09-23T20:16:58.192Z,11.70
2017-09-23T20:19:24.635Z,11.70
2017-09-23T20:21:51.094Z,11.60
2017-09-23T20:24:18.302Z,11.50
2017-09-23T20:26:44.844Z,11.50
2017-09-23T20:29:11.356Z,11.50
2017-09-23T20:31:37.895Z,11.40
2017-09-23T20:34:04.396Z,11.20
2017-09-23T20:36:30.888Z,11.10
2017-09-23T20:38:58.819Z,10.90
2017-09-23T20:41:25.340Z,10.90
2017-09-23T20:43:51.807Z,11.00
2017-09-23T20:46:18.321Z,10.90
2017-09-23T20:48:44.807Z,10.90
2017-09-23T20:51:11.273Z,10.80
2017-09-23T20:53:37.946Z,10.80
2017-09-23T20:56:04.560Z,10.60
2017-09-23T20:58:31.085Z,10.60
2017-09-23T21:00:57.668Z,10.40
2017-09-23T21:03:24.124Z,10.40
2017-09-23T21:05:51.380Z,10.30
2017-09-23T21:08:18.599Z,10.20
2017-09-23T21:10:45.096Z,10.20
2017-09-23T21:13:11.597Z,10.20
2017-09-23T21:15:39.271Z,10.10
2017-09-23T21:18:06.467Z,10.10
2017-09-23T21:20:32.915Z,10.10
2017-09-23T21:22:59.428Z,10.10
2017-09-23T21:25:25.858Z,10.10
2017-09-23T21:27:52.350Z,9.90
2017-09-23T21:30:19.546Z,10.00
2017-09-23T21:32:45.991Z,9.90
2017-09-23T21:35:12.439Z,9.90
2017-09-23T21:37:38.931Z,10.00
2017-09-23T21:40:05.364Z,9.90
2017-09-23T21:42:31.826Z,9.80
2017-09-23T21:44:58.295Z,9.70
2017-09-23T21:47:25.546Z,9.70
2017-09-23T21:49:52.912Z,9.70
2017-09-23T21:52:20.096Z,9.70
2017-09-23T21:54:46.595Z,9.60
2017-09-23T21:57:13.785Z,9.60
2017-09-23T21:59:40.280Z,9.60
2017-09-23T22:02:07.552Z,9.50
2017-09-23T22:04:33.988Z,9.50
2017-09-23T22:07:00.483Z,9.60
2017-09-23T22:09:26.924Z,9.50
2017-09-23T22:11:54.130Z,9.40
2017-09-23T22:14:20.591Z,9.40
2017-09-23T22:16:47.015Z,9.30
2017-09-23T22:19:13.486Z,9.30
2017-09-23T22:21:40.707Z,9.10
2017-09-23T22:24:07.175Z,9.10
2017-09-23T22:26:33.608Z,9.10
2017-09-23T22:29:00.093Z,9.10
2017-09-23T22:31:26.627Z,9.20
2017-09-23T22:33:53.090Z,9.20
2017-09-23T22:36:20.319Z,9.20
2017-09-23T22:38:47.495Z,9.30
2017-09-23T22:41:14.712Z,9.20
2017-09-23T22:43:41.082Z,9.20
2017-09-23T22:46:08.482Z,9.10
2017-09-23T22:48:34.896Z,9.00
2017-09-23T22:51:01.425Z,9.10
2017-09-23T22:53:28.051Z,9.10
2017-09-23T22:55:54.499Z,9.20
2017-09-23T22:58:20.960Z,9.20
2017-09-23T23:00:47.519Z,9.30
2017-09-23T23:03:13.962Z,9.30
2017-09-23T23:05:40.431Z,9.40
2017-09-23T23:08:06.901Z,9.30
2017-09-23T23:10:33.570Z,9.30
2017-09-23T23:13:00.784Z,9.30
2017-09-23T23:15:27.248Z,9.30
2017-09-23T23:17:53.682Z,9.30
2017-09-23T23:20:20.155Z,9.20
2017-09-23T23:22:46.608Z,9.10
2017-09-23T23:25:13.079Z,9.10
2017-09-23T23:27:39.557Z,9.20
2017-09-23T23:30:06.004Z,9.20
2017-09-23T23:32:32.632Z,9.30
2017-09-23T23:34:59.057Z,9.30
2017-09-23T23:37:25.695Z,9.30
2017-09-23T23:39:52.211Z,9.30
2017-09-23T23:42:18.611Z,9.30
2017-09-23T23:44:45.070Z,9.20
2017-09-23T23:47:12.287Z,9.10
2017-09-23T23:49:38.712Z,9.10
2017-09-23T23:52:05.144Z,9.10
2017-09-23T23:54:31.789Z,8.90
2017-09-23T23:56:58.254Z,9.00
2017-09-23T23:59:25.451Z,9.10
